CXA8571 ZSAM-ZSJN
Flight info
| Callsign | CXA8571 |
|---|---|
| Flight time | 1h 57m |
| Altitude | 32100 |
| Route | DOVPU7Y DOVPU W643 FOC W644 AKAVO A470 EMRID W135 DOGVI A470 DPX A593 ABTUB ABTUB8X |
| Aircraft | B38M/M-SDE1FGHILORVWXY/HB1 |
Departure
| Time | 2026-04-23 06:26 |
|---|---|
| Airport | Xiamen Gaoqi International Airport (ZSAM) |
Arrival
| Time | 2026-04-23 08:23 |
|---|---|
| Airport | Jinan Yaoqiang International Airport (ZSJN) |
| Time | Latitude | Longitude | Altitude | Speed | Heading |
|---|---|---|---|---|---|
| 2026-04-23 06:05 | 24.53598 | 118.12306 | 63 ft | 0 kts | 142° |
| 2026-04-23 06:15 | 24.53600 | 118.12305 | 63 ft | 3 kts | 142° |
| 2026-04-23 06:15 | 24.53621 | 118.12287 | 57 ft | 4 kts | 142° |
| 2026-04-23 06:15 | 24.53638 | 118.12271 | 55 ft | 4 kts | 128° |
| 2026-04-23 06:16 | 24.53645 | 118.12247 | 56 ft | 4 kts | 75° |
| 2026-04-23 06:16 | 24.53633 | 118.12222 | 53 ft | 4 kts | 51° |
| 2026-04-23 06:16 | 24.53629 | 118.12217 | 54 ft | 1 kts | 51° |
| 2026-04-23 06:19 | 24.53637 | 118.12228 | 54 ft | 3 kts | 51° |
| 2026-04-23 06:19 | 24.53659 | 118.12256 | 53 ft | 6 kts | 47° |
| 2026-04-23 06:19 | 24.53693 | 118.12301 | 60 ft | 9 kts | 52° |
| 2026-04-23 06:19 | 24.53738 | 118.12366 | 56 ft | 12 kts | 52° |
| 2026-04-23 06:20 | 24.53795 | 118.12444 | 58 ft | 14 kts | 51° |
| 2026-04-23 06:20 | 24.53852 | 118.12526 | 57 ft | 14 kts | 53° |
| 2026-04-23 06:20 | 24.53914 | 118.12568 | 58 ft | 9 kts | 346° |
| 2026-04-23 06:20 | 24.53968 | 118.12529 | 57 ft | 10 kts | 324° |
| 2026-04-23 06:21 | 24.54035 | 118.12527 | 58 ft | 11 kts | 47° |
| 2026-04-23 06:21 | 24.54094 | 118.12611 | 58 ft | 17 kts | 52° |
| 2026-04-23 06:21 | 24.54180 | 118.12731 | 54 ft | 23 kts | 52° |
| 2026-04-23 06:21 | 24.54284 | 118.12876 | 54 ft | 25 kts | 52° |
| 2026-04-23 06:22 | 24.54389 | 118.13024 | 55 ft | 25 kts | 52° |
| 2026-04-23 06:22 | 24.54494 | 118.13171 | 54 ft | 24 kts | 52° |
| 2026-04-23 06:22 | 24.54598 | 118.13317 | 50 ft | 24 kts | 52° |
| 2026-04-23 06:22 | 24.54704 | 118.13464 | 50 ft | 24 kts | 52° |
| 2026-04-23 06:23 | 24.54809 | 118.13611 | 51 ft | 25 kts | 52° |
| 2026-04-23 06:23 | 24.54898 | 118.13735 | 50 ft | 18 kts | 52° |
| 2026-04-23 06:23 | 24.54977 | 118.13847 | 48 ft | 19 kts | 52° |
| 2026-04-23 06:23 | 24.55059 | 118.13962 | 48 ft | 19 kts | 52° |
| 2026-04-23 06:24 | 24.55138 | 118.14059 | 47 ft | 10 kts | 22° |
| 2026-04-23 06:24 | 24.55202 | 118.14035 | 47 ft | 10 kts | 323° |
| 2026-04-23 06:24 | 24.55252 | 118.13977 | 47 ft | 11 kts | 279° |
| 2026-04-23 06:24 | 24.55228 | 118.13908 | 47 ft | 1 kts | 232° |
| 2026-04-23 06:25 | 24.55180 | 118.13841 | 48 ft | 39 kts | 232° |
| 2026-04-23 06:26 | 24.54841 | 118.13367 | 50 ft | 116 kts | 232° |
| 2026-04-23 06:26 | 24.54205 | 118.12479 | 91 ft | 175 kts | 231° |
| 2026-04-23 06:26 | 24.53421 | 118.11375 | 722 ft | 191 kts | 232° |
| 2026-04-23 06:26 | 24.52596 | 118.10191 | 1580 ft | 201 kts | 233° |
| 2026-04-23 06:27 | 24.51718 | 118.08939 | 2629 ft | 207 kts | 232° |
| 2026-04-23 06:27 | 24.50969 | 118.07899 | 3594 ft | 210 kts | 233° |
| 2026-04-23 06:27 | 24.50070 | 118.06627 | 4539 ft | 217 kts | 233° |
| 2026-04-23 06:27 | 24.49146 | 118.05333 | 5615 ft | 215 kts | 230° |
| 2026-04-23 06:28 | 24.47946 | 118.04251 | 6338 ft | 237 kts | 206° |
| 2026-04-23 06:28 | 24.46309 | 118.03983 | 7300 ft | 249 kts | 179° |
| 2026-04-23 06:28 | 24.44638 | 118.04675 | 8157 ft | 272 kts | 150° |
| 2026-04-23 06:28 | 24.43348 | 118.06295 | 8885 ft | 300 kts | 122° |
| 2026-04-23 06:29 | 24.42908 | 118.08577 | 9742 ft | 317 kts | 88° |
| 2026-04-23 06:29 | 24.43532 | 118.10918 | 10480 ft | 328 kts | 57° |
| 2026-04-23 06:29 | 24.45019 | 118.12824 | 11244 ft | 333 kts | 43° |
| 2026-04-23 06:29 | 24.46572 | 118.14775 | 11909 ft | 348 kts | 48° |
| 2026-04-23 06:30 | 24.48136 | 118.16889 | 12288 ft | 368 kts | 49° |
| 2026-04-23 06:30 | 24.49765 | 118.19136 | 12799 ft | 382 kts | 50° |
| 2026-04-23 06:30 | 24.51428 | 118.21458 | 13466 ft | 389 kts | 50° |
| 2026-04-23 06:30 | 24.53122 | 118.23838 | 14205 ft | 393 kts | 50° |
| 2026-04-23 06:31 | 24.54787 | 118.26188 | 14877 ft | 397 kts | 50° |
| 2026-04-23 06:31 | 24.56488 | 118.28589 | 15567 ft | 400 kts | 50° |
| 2026-04-23 06:31 | 24.58202 | 118.31012 | 16235 ft | 404 kts | 50° |
| 2026-04-23 06:31 | 24.59910 | 118.33422 | 16918 ft | 407 kts | 49° |
| 2026-04-23 06:32 | 24.61953 | 118.35569 | 17445 ft | 407 kts | 30° |
| 2026-04-23 06:32 | 24.64369 | 118.37149 | 18074 ft | 407 kts | 25° |
| 2026-04-23 06:32 | 24.66851 | 118.38698 | 18593 ft | 410 kts | 25° |
| 2026-04-23 06:32 | 24.69354 | 118.40232 | 19093 ft | 413 kts | 24° |
| 2026-04-23 06:33 | 24.71877 | 118.41762 | 19603 ft | 416 kts | 24° |
| 2026-04-23 06:33 | 24.74426 | 118.43300 | 20107 ft | 419 kts | 24° |
| 2026-04-23 06:33 | 24.76986 | 118.44840 | 20651 ft | 422 kts | 24° |
| 2026-04-23 06:33 | 24.79576 | 118.46400 | 21179 ft | 426 kts | 24° |
| 2026-04-23 06:34 | 24.82182 | 118.47967 | 21696 ft | 428 kts | 24° |
| 2026-04-23 06:34 | 24.84769 | 118.49525 | 22196 ft | 431 kts | 24° |
| 2026-04-23 06:34 | 24.87280 | 118.51398 | 22613 ft | 443 kts | 39° |
| 2026-04-23 06:34 | 24.89436 | 118.53837 | 23151 ft | 446 kts | 42° |
| 2026-04-23 06:35 | 24.91600 | 118.56311 | 23509 ft | 451 kts | 43° |
| 2026-04-23 06:35 | 24.93766 | 118.58820 | 23900 ft | 453 kts | 43° |
| 2026-04-23 06:35 | 24.95938 | 118.61355 | 24275 ft | 457 kts | 43° |
| 2026-04-23 06:35 | 24.98124 | 118.63914 | 24613 ft | 460 kts | 43° |
| 2026-04-23 06:36 | 25.00322 | 118.66492 | 25004 ft | 463 kts | 43° |
| 2026-04-23 06:36 | 25.02535 | 118.69086 | 25393 ft | 465 kts | 43° |
| 2026-04-23 06:36 | 25.04750 | 118.71687 | 25770 ft | 467 kts | 43° |
| 2026-04-23 06:36 | 25.06954 | 118.74275 | 26170 ft | 470 kts | 42° |
| 2026-04-23 06:37 | 25.09205 | 118.76917 | 26714 ft | 476 kts | 42° |
| 2026-04-23 06:37 | 25.11482 | 118.79598 | 27204 ft | 483 kts | 43° |
| 2026-04-23 06:37 | 25.13793 | 118.82317 | 27627 ft | 487 kts | 42° |
| 2026-04-23 06:37 | 25.16115 | 118.85052 | 28094 ft | 490 kts | 42° |
| 2026-04-23 06:38 | 25.18454 | 118.87806 | 28372 ft | 494 kts | 42° |
| 2026-04-23 06:38 | 25.20807 | 118.90580 | 28732 ft | 496 kts | 42° |
| 2026-04-23 06:38 | 25.23172 | 118.93369 | 29034 ft | 499 kts | 42° |
| 2026-04-23 06:38 | 25.25551 | 118.96174 | 29365 ft | 501 kts | 42° |
| 2026-04-23 06:39 | 25.27959 | 118.98972 | 29696 ft | 503 kts | 41° |
| 2026-04-23 06:39 | 25.30341 | 119.01741 | 29991 ft | 505 kts | 41° |
| 2026-04-23 06:39 | 25.32770 | 119.04567 | 30232 ft | 508 kts | 41° |
| 2026-04-23 06:39 | 25.35204 | 119.07401 | 30502 ft | 510 kts | 41° |
| 2026-04-23 06:40 | 25.37653 | 119.10256 | 30767 ft | 512 kts | 41° |
| 2026-04-23 06:40 | 25.40113 | 119.13125 | 31031 ft | 515 kts | 41° |
| 2026-04-23 06:40 | 25.42580 | 119.16003 | 31290 ft | 517 kts | 41° |
| 2026-04-23 06:40 | 25.45058 | 119.18897 | 31542 ft | 519 kts | 41° |
| 2026-04-23 06:41 | 25.47547 | 119.21806 | 31798 ft | 521 kts | 41° |
| 2026-04-23 06:41 | 25.49746 | 119.24375 | 31947 ft | 525 kts | 41° |
| 2026-04-23 06:41 | 25.54767 | 119.30270 | 31941 ft | 530 kts | 41° |
| 2026-04-23 06:42 | 25.59812 | 119.36227 | 31956 ft | 531 kts | 41° |
| 2026-04-23 06:42 | 25.64861 | 119.42192 | 31961 ft | 530 kts | 41° |
| 2026-04-23 06:43 | 25.69908 | 119.48164 | 31982 ft | 531 kts | 41° |
| 2026-04-23 06:43 | 25.74954 | 119.54141 | 31966 ft | 534 kts | 41° |
| 2026-04-23 06:44 | 25.77658 | 119.56914 | 31965 ft | 522 kts | 28° |
| 2026-04-23 06:44 | 25.80725 | 119.58948 | 31992 ft | 511 kts | 20° |
| 2026-04-23 06:44 | 25.87025 | 119.62679 | 31985 ft | 512 kts | 19° |
| 2026-04-23 06:45 | 25.93311 | 119.66266 | 31985 ft | 511 kts | 19° |
| 2026-04-23 06:45 | 25.99662 | 119.69844 | 31914 ft | 513 kts | 18° |
| 2026-04-23 06:46 | 26.02834 | 119.71633 | 32021 ft | 512 kts | 18° |
| 2026-04-23 06:46 | 26.06061 | 119.73307 | 31952 ft | 505 kts | 11° |
| 2026-04-23 06:46 | 26.09387 | 119.74198 | 31992 ft | 481 kts | 354° |
| 2026-04-23 06:46 | 26.12671 | 119.74235 | 31993 ft | 471 kts | 348° |
| 2026-04-23 06:47 | 26.19216 | 119.73973 | 31988 ft | 470 kts | 347° |
| 2026-04-23 06:47 | 26.24642 | 119.73662 | 32018 ft | 468 kts | 346° |
| 2026-04-23 06:48 | 26.32174 | 119.73200 | 31969 ft | 467 kts | 346° |
| 2026-04-23 06:48 | 26.38687 | 119.72793 | 31989 ft | 469 kts | 346° |
| 2026-04-23 06:49 | 26.44095 | 119.72455 | 31987 ft | 468 kts | 346° |
| 2026-04-23 06:49 | 26.50673 | 119.72447 | 31991 ft | 475 kts | 351° |
| 2026-04-23 06:50 | 26.57279 | 119.72607 | 31973 ft | 474 kts | 350° |
| 2026-04-23 06:50 | 26.63892 | 119.72732 | 32000 ft | 476 kts | 350° |
| 2026-04-23 06:51 | 26.70512 | 119.72855 | 31979 ft | 475 kts | 350° |
| 2026-04-23 06:51 | 26.77128 | 119.72977 | 32013 ft | 476 kts | 350° |
| 2026-04-23 06:52 | 26.83751 | 119.73100 | 31999 ft | 476 kts | 349° |
| 2026-04-23 06:52 | 26.90367 | 119.73224 | 31989 ft | 476 kts | 349° |
| 2026-04-23 06:53 | 26.96990 | 119.73285 | 31981 ft | 469 kts | 344° |
| 2026-04-23 06:53 | 27.00094 | 119.72611 | 32008 ft | 442 kts | 328° |
| 2026-04-23 06:53 | 27.02801 | 119.71165 | 31995 ft | 428 kts | 320° |
| 2026-04-23 06:54 | 27.07939 | 119.67908 | 31990 ft | 426 kts | 319° |
| 2026-04-23 06:54 | 27.13017 | 119.64498 | 31985 ft | 425 kts | 318° |
| 2026-04-23 06:55 | 27.18065 | 119.61049 | 31982 ft | 424 kts | 317° |
| 2026-04-23 06:55 | 27.23110 | 119.57591 | 31996 ft | 426 kts | 319° |
| 2026-04-23 06:56 | 27.25864 | 119.56206 | 31946 ft | 446 kts | 333° |
| 2026-04-23 06:56 | 27.29003 | 119.55668 | 31996 ft | 469 kts | 347° |
| 2026-04-23 06:56 | 27.35546 | 119.55614 | 31972 ft | 473 kts | 348° |
| 2026-04-23 06:57 | 27.42136 | 119.55610 | 32004 ft | 475 kts | 348° |
| 2026-04-23 06:57 | 27.48743 | 119.55647 | 32009 ft | 474 kts | 348° |
| 2026-04-23 06:58 | 27.55342 | 119.55684 | 31998 ft | 474 kts | 348° |
| 2026-04-23 06:58 | 27.61952 | 119.55720 | 31999 ft | 475 kts | 348° |
| 2026-04-23 06:59 | 27.68565 | 119.55757 | 32010 ft | 475 kts | 348° |
| 2026-04-23 06:59 | 27.75187 | 119.55794 | 31963 ft | 475 kts | 348° |
| 2026-04-23 07:00 | 27.81753 | 119.55830 | 32006 ft | 476 kts | 348° |
| 2026-04-23 07:00 | 27.88374 | 119.55866 | 31999 ft | 476 kts | 348° |
| 2026-04-23 07:01 | 27.94992 | 119.55943 | 32017 ft | 477 kts | 348° |
| 2026-04-23 07:01 | 28.01623 | 119.56041 | 31978 ft | 476 kts | 348° |
| 2026-04-23 07:02 | 28.08245 | 119.56137 | 32057 ft | 477 kts | 348° |
| 2026-04-23 07:02 | 28.14862 | 119.56479 | 32004 ft | 479 kts | 351° |
| 2026-04-23 07:03 | 28.21528 | 119.56839 | 32004 ft | 479 kts | 350° |
| 2026-04-23 07:03 | 28.28189 | 119.57193 | 32019 ft | 480 kts | 350° |
| 2026-04-23 07:04 | 28.34852 | 119.57549 | 32032 ft | 479 kts | 350° |
| 2026-04-23 07:04 | 28.41515 | 119.57905 | 32011 ft | 479 kts | 350° |
| 2026-04-23 07:05 | 28.48174 | 119.58292 | 32016 ft | 480 kts | 351° |
| 2026-04-23 07:05 | 28.54836 | 119.58705 | 32019 ft | 480 kts | 351° |
| 2026-04-23 07:06 | 28.61462 | 119.59111 | 32062 ft | 480 kts | 351° |
| 2026-04-23 07:06 | 28.68130 | 119.59524 | 32021 ft | 480 kts | 351° |
| 2026-04-23 07:07 | 28.74857 | 119.59939 | 32025 ft | 480 kts | 351° |
| 2026-04-23 07:07 | 28.81490 | 119.60348 | 32047 ft | 481 kts | 351° |
| 2026-04-23 07:08 | 28.88166 | 119.60762 | 32050 ft | 480 kts | 351° |
| 2026-04-23 07:08 | 28.94886 | 119.61179 | 32045 ft | 480 kts | 351° |
| 2026-04-23 07:09 | 29.01565 | 119.61593 | 32038 ft | 481 kts | 351° |
| 2026-04-23 07:09 | 29.08201 | 119.62004 | 32042 ft | 480 kts | 351° |
| 2026-04-23 07:10 | 29.14868 | 119.62410 | 32042 ft | 479 kts | 351° |
| 2026-04-23 07:10 | 29.21528 | 119.62816 | 32043 ft | 479 kts | 351° |
| 2026-04-23 07:11 | 29.28187 | 119.63224 | 32046 ft | 480 kts | 351° |
| 2026-04-23 07:12 | 29.38187 | 119.63836 | 32057 ft | 480 kts | 351° |
| 2026-04-23 07:12 | 29.44869 | 119.64246 | 32056 ft | 481 kts | 351° |
| 2026-04-23 07:13 | 29.51517 | 119.64654 | 32041 ft | 481 kts | 351° |
| 2026-04-23 07:13 | 29.57726 | 119.64634 | 32047 ft | 469 kts | 344° |
| 2026-04-23 07:14 | 29.64238 | 119.64180 | 32051 ft | 468 kts | 343° |
| 2026-04-23 07:14 | 29.70738 | 119.63714 | 32050 ft | 468 kts | 343° |
| 2026-04-23 07:15 | 29.77239 | 119.63245 | 32047 ft | 468 kts | 343° |
| 2026-04-23 07:15 | 29.83744 | 119.62773 | 32053 ft | 468 kts | 343° |
| 2026-04-23 07:16 | 29.90234 | 119.62302 | 32065 ft | 467 kts | 344° |
| 2026-04-23 07:16 | 29.96729 | 119.61830 | 32056 ft | 467 kts | 344° |
| 2026-04-23 07:17 | 30.03223 | 119.61357 | 32073 ft | 468 kts | 344° |
| 2026-04-23 07:17 | 30.09719 | 119.60883 | 32057 ft | 468 kts | 344° |
| 2026-04-23 07:18 | 30.16222 | 119.60408 | 32066 ft | 468 kts | 344° |
| 2026-04-23 07:18 | 30.22727 | 119.59933 | 32066 ft | 468 kts | 344° |
| 2026-04-23 07:19 | 30.29234 | 119.59457 | 32067 ft | 468 kts | 344° |
| 2026-04-23 07:19 | 30.35742 | 119.58980 | 32061 ft | 468 kts | 344° |
| 2026-04-23 07:20 | 30.42231 | 119.58504 | 32079 ft | 468 kts | 344° |
| 2026-04-23 07:20 | 30.48352 | 119.58054 | 32082 ft | 469 kts | 344° |
| 2026-04-23 07:21 | 30.54858 | 119.57575 | 32067 ft | 468 kts | 344° |
| 2026-04-23 07:21 | 30.61370 | 119.57095 | 32122 ft | 469 kts | 345° |
| 2026-04-23 07:22 | 30.67889 | 119.56615 | 32055 ft | 470 kts | 345° |
| 2026-04-23 07:22 | 30.74383 | 119.56135 | 32080 ft | 471 kts | 345° |
| 2026-04-23 07:23 | 30.80963 | 119.55648 | 32083 ft | 471 kts | 345° |
| 2026-04-23 07:23 | 30.87456 | 119.55167 | 32113 ft | 471 kts | 346° |
| 2026-04-23 07:24 | 30.94045 | 119.54678 | 32086 ft | 472 kts | 346° |
| 2026-04-23 07:24 | 31.00558 | 119.54194 | 32086 ft | 472 kts | 346° |
| 2026-04-23 07:25 | 31.07152 | 119.53704 | 32099 ft | 472 kts | 346° |
| 2026-04-23 07:25 | 31.13669 | 119.53219 | 32094 ft | 473 kts | 346° |
| 2026-04-23 07:26 | 31.20072 | 119.52160 | 32060 ft | 448 kts | 328° |
| 2026-04-23 07:26 | 31.22777 | 119.50467 | 32099 ft | 430 kts | 316° |
| 2026-04-23 07:26 | 31.25264 | 119.48513 | 32064 ft | 430 kts | 316° |
| 2026-04-23 07:27 | 31.30119 | 119.44465 | 32090 ft | 428 kts | 314° |
| 2026-04-23 07:27 | 31.34911 | 119.40336 | 32093 ft | 428 kts | 314° |
| 2026-04-23 07:28 | 31.39683 | 119.36183 | 32134 ft | 427 kts | 314° |
| 2026-04-23 07:28 | 31.44442 | 119.32031 | 32088 ft | 426 kts | 314° |
| 2026-04-23 07:29 | 31.49194 | 119.27881 | 32106 ft | 426 kts | 314° |
| 2026-04-23 07:29 | 31.53948 | 119.23724 | 32115 ft | 426 kts | 314° |
| 2026-04-23 07:30 | 31.58664 | 119.19560 | 32089 ft | 423 kts | 314° |
| 2026-04-23 07:30 | 31.63368 | 119.15394 | 32097 ft | 424 kts | 313° |
| 2026-04-23 07:31 | 31.67844 | 119.10984 | 32094 ft | 419 kts | 310° |
| 2026-04-23 07:31 | 31.72224 | 119.06471 | 32108 ft | 419 kts | 310° |
| 2026-04-23 07:32 | 31.76616 | 119.01968 | 32091 ft | 419 kts | 310° |
| 2026-04-23 07:32 | 31.81025 | 118.97490 | 32086 ft | 423 kts | 314° |
| 2026-04-23 07:32 | 31.83647 | 118.95775 | 32091 ft | 441 kts | 328° |
| 2026-04-23 07:33 | 31.86517 | 118.94462 | 32084 ft | 443 kts | 328° |
| 2026-04-23 07:33 | 31.92267 | 118.91821 | 32095 ft | 445 kts | 329° |
| 2026-04-23 07:34 | 31.98047 | 118.89218 | 32094 ft | 445 kts | 329° |
| 2026-04-23 07:34 | 32.03831 | 118.86617 | 32109 ft | 445 kts | 329° |
| 2026-04-23 07:35 | 32.09615 | 118.84013 | 32089 ft | 445 kts | 329° |
| 2026-04-23 07:35 | 32.15398 | 118.81407 | 32093 ft | 445 kts | 329° |
| 2026-04-23 07:36 | 32.21181 | 118.78796 | 32090 ft | 445 kts | 329° |
| 2026-04-23 07:36 | 32.26963 | 118.76182 | 32127 ft | 445 kts | 329° |
| 2026-04-23 07:37 | 32.32743 | 118.73566 | 32101 ft | 444 kts | 329° |
| 2026-04-23 07:37 | 32.38517 | 118.70949 | 32098 ft | 445 kts | 329° |
| 2026-04-23 07:38 | 32.44296 | 118.68326 | 32098 ft | 444 kts | 329° |
| 2026-04-23 07:38 | 32.49093 | 118.66146 | 32123 ft | 444 kts | 329° |
| 2026-04-23 07:39 | 32.54895 | 118.63504 | 32120 ft | 449 kts | 328° |
| 2026-04-23 07:39 | 32.60730 | 118.60847 | 32105 ft | 449 kts | 328° |
| 2026-04-23 07:40 | 32.66564 | 118.58192 | 32106 ft | 451 kts | 330° |
| 2026-04-23 07:40 | 32.72648 | 118.56054 | 32104 ft | 456 kts | 333° |
| 2026-04-23 07:41 | 32.78715 | 118.53893 | 32101 ft | 455 kts | 332° |
| 2026-04-23 07:41 | 32.84780 | 118.51710 | 32097 ft | 455 kts | 332° |
| 2026-04-23 07:42 | 32.90834 | 118.49526 | 32098 ft | 455 kts | 332° |
| 2026-04-23 07:42 | 32.96893 | 118.47338 | 32101 ft | 455 kts | 332° |
| 2026-04-23 07:43 | 33.02949 | 118.45147 | 32101 ft | 455 kts | 332° |
| 2026-04-23 07:43 | 33.09000 | 118.42955 | 32099 ft | 455 kts | 332° |
| 2026-04-23 07:44 | 33.15056 | 118.40758 | 32095 ft | 455 kts | 332° |
| 2026-04-23 07:44 | 33.21110 | 118.38560 | 32096 ft | 455 kts | 332° |
| 2026-04-23 07:45 | 33.27174 | 118.36380 | 32114 ft | 455 kts | 332° |
| 2026-04-23 07:45 | 33.33222 | 118.34201 | 32125 ft | 453 kts | 332° |
| 2026-04-23 07:46 | 33.38882 | 118.32157 | 32097 ft | 452 kts | 332° |
| 2026-04-23 07:46 | 33.44912 | 118.29978 | 32090 ft | 452 kts | 332° |
| 2026-04-23 07:47 | 33.50940 | 118.27796 | 32091 ft | 452 kts | 332° |
| 2026-04-23 07:47 | 33.56962 | 118.25613 | 32124 ft | 452 kts | 332° |
| 2026-04-23 07:48 | 33.62987 | 118.23427 | 32089 ft | 452 kts | 332° |
| 2026-04-23 07:48 | 33.69006 | 118.21239 | 32091 ft | 452 kts | 332° |
| 2026-04-23 07:49 | 33.75036 | 118.19043 | 32085 ft | 452 kts | 332° |
| 2026-04-23 07:49 | 33.81055 | 118.16851 | 32086 ft | 452 kts | 332° |
| 2026-04-23 07:50 | 33.87080 | 118.14663 | 32093 ft | 452 kts | 333° |
| 2026-04-23 07:50 | 33.93099 | 118.12473 | 32086 ft | 452 kts | 333° |
| 2026-04-23 07:51 | 33.98703 | 118.10431 | 32082 ft | 452 kts | 333° |
| 2026-04-23 07:51 | 34.04729 | 118.08243 | 32081 ft | 452 kts | 333° |
| 2026-04-23 07:52 | 34.10751 | 118.06057 | 32107 ft | 451 kts | 334° |
| 2026-04-23 07:52 | 34.16744 | 118.03876 | 32082 ft | 450 kts | 334° |
| 2026-04-23 07:53 | 34.22740 | 118.01691 | 32078 ft | 450 kts | 334° |
| 2026-04-23 07:53 | 34.28745 | 117.99518 | 32081 ft | 451 kts | 334° |
| 2026-04-23 07:54 | 34.34764 | 117.97377 | 32104 ft | 451 kts | 335° |
| 2026-04-23 07:54 | 34.40780 | 117.95229 | 32082 ft | 451 kts | 335° |
| 2026-04-23 07:55 | 34.46757 | 117.93091 | 32077 ft | 451 kts | 335° |
| 2026-04-23 07:55 | 34.52779 | 117.90935 | 32080 ft | 451 kts | 335° |
| 2026-04-23 07:56 | 34.58803 | 117.88774 | 32099 ft | 451 kts | 335° |
| 2026-04-23 07:56 | 34.64821 | 117.86613 | 31755 ft | 450 kts | 336° |
| 2026-04-23 07:56 | 34.67823 | 117.85534 | 31292 ft | 450 kts | 336° |
| 2026-04-23 07:57 | 34.70820 | 117.84455 | 30805 ft | 450 kts | 336° |
| 2026-04-23 07:57 | 34.73818 | 117.83375 | 30334 ft | 450 kts | 336° |
| 2026-04-23 07:57 | 34.76826 | 117.82291 | 29831 ft | 451 kts | 336° |
| 2026-04-23 07:57 | 34.79840 | 117.81204 | 29274 ft | 452 kts | 337° |
| 2026-04-23 07:58 | 34.82859 | 117.80110 | 28726 ft | 453 kts | 337° |
| 2026-04-23 07:58 | 34.85883 | 117.79006 | 28219 ft | 454 kts | 337° |
| 2026-04-23 07:58 | 34.88911 | 117.77899 | 27696 ft | 455 kts | 338° |
| 2026-04-23 07:58 | 34.91940 | 117.76791 | 27169 ft | 455 kts | 338° |
| 2026-04-23 07:59 | 34.94978 | 117.75679 | 26677 ft | 456 kts | 338° |
| 2026-04-23 07:59 | 34.97979 | 117.74580 | 26176 ft | 457 kts | 338° |
| 2026-04-23 07:59 | 35.01027 | 117.73462 | 25680 ft | 458 kts | 338° |
| 2026-04-23 07:59 | 35.04051 | 117.72354 | 25208 ft | 450 kts | 338° |
| 2026-04-23 08:00 | 35.07025 | 117.71263 | 24745 ft | 441 kts | 338° |
| 2026-04-23 08:00 | 35.09934 | 117.70198 | 24304 ft | 433 kts | 338° |
| 2026-04-23 08:00 | 35.12797 | 117.69148 | 23853 ft | 426 kts | 338° |
| 2026-04-23 08:00 | 35.15609 | 117.68116 | 23381 ft | 419 kts | 338° |
| 2026-04-23 08:01 | 35.18383 | 117.67098 | 22850 ft | 413 kts | 338° |
| 2026-04-23 08:01 | 35.21122 | 117.66092 | 22320 ft | 408 kts | 339° |
| 2026-04-23 08:01 | 35.23840 | 117.65093 | 21809 ft | 402 kts | 339° |
| 2026-04-23 08:01 | 35.26486 | 117.64120 | 21308 ft | 398 kts | 339° |
| 2026-04-23 08:02 | 35.29120 | 117.63150 | 20811 ft | 394 kts | 340° |
| 2026-04-23 08:02 | 35.31732 | 117.62187 | 20330 ft | 390 kts | 340° |
| 2026-04-23 08:02 | 35.34279 | 117.61247 | 19860 ft | 386 kts | 341° |
| 2026-04-23 08:02 | 35.36841 | 117.60302 | 19387 ft | 383 kts | 342° |
| 2026-04-23 08:03 | 35.39377 | 117.59366 | 18928 ft | 379 kts | 342° |
| 2026-04-23 08:03 | 35.41895 | 117.58436 | 18474 ft | 376 kts | 343° |
| 2026-04-23 08:03 | 35.44393 | 117.57513 | 17986 ft | 374 kts | 343° |
| 2026-04-23 08:03 | 35.46877 | 117.56593 | 17465 ft | 371 kts | 343° |
| 2026-04-23 08:04 | 35.49342 | 117.55681 | 16952 ft | 369 kts | 343° |
| 2026-04-23 08:04 | 35.51797 | 117.54771 | 16446 ft | 367 kts | 343° |
| 2026-04-23 08:04 | 35.54236 | 117.53867 | 15945 ft | 366 kts | 343° |
| 2026-04-23 08:04 | 35.56666 | 117.52966 | 15462 ft | 364 kts | 344° |
| 2026-04-23 08:05 | 35.59092 | 117.52066 | 14979 ft | 363 kts | 344° |
| 2026-04-23 08:05 | 35.61501 | 117.51171 | 14501 ft | 361 kts | 344° |
| 2026-04-23 08:05 | 35.63905 | 117.50278 | 14028 ft | 360 kts | 344° |
| 2026-04-23 08:05 | 35.66298 | 117.49389 | 13516 ft | 359 kts | 344° |
| 2026-04-23 08:06 | 35.68655 | 117.48512 | 13003 ft | 358 kts | 345° |
| 2026-04-23 08:06 | 35.71036 | 117.47625 | 12488 ft | 357 kts | 345° |
| 2026-04-23 08:06 | 35.73411 | 117.46740 | 11973 ft | 356 kts | 344° |
| 2026-04-23 08:06 | 35.75775 | 117.45859 | 11490 ft | 355 kts | 345° |
| 2026-04-23 08:07 | 35.78120 | 117.44985 | 11190 ft | 348 kts | 345° |
| 2026-04-23 08:07 | 35.80409 | 117.44131 | 10955 ft | 340 kts | 345° |
| 2026-04-23 08:07 | 35.82651 | 117.43294 | 10703 ft | 333 kts | 345° |
| 2026-04-23 08:07 | 35.84839 | 117.42476 | 10457 ft | 326 kts | 345° |
| 2026-04-23 08:08 | 35.86987 | 117.41672 | 10257 ft | 318 kts | 345° |
| 2026-04-23 08:08 | 35.89074 | 117.40892 | 10119 ft | 309 kts | 345° |
| 2026-04-23 08:08 | 35.91096 | 117.40135 | 10003 ft | 299 kts | 345° |
| 2026-04-23 08:08 | 35.93053 | 117.39403 | 9885 ft | 289 kts | 345° |
| 2026-04-23 08:09 | 35.94947 | 117.38694 | 9781 ft | 280 kts | 345° |
| 2026-04-23 08:09 | 35.96793 | 117.38002 | 9498 ft | 277 kts | 345° |
| 2026-04-23 08:09 | 35.98633 | 117.37312 | 9184 ft | 275 kts | 345° |
| 2026-04-23 08:09 | 36.00437 | 117.36640 | 8852 ft | 275 kts | 345° |
| 2026-04-23 08:10 | 36.02263 | 117.35967 | 8525 ft | 274 kts | 345° |
| 2026-04-23 08:10 | 36.04090 | 117.35292 | 8218 ft | 272 kts | 345° |
| 2026-04-23 08:10 | 36.07698 | 117.33960 | 7629 ft | 270 kts | 345° |
| 2026-04-23 08:11 | 36.09495 | 117.33295 | 7337 ft | 269 kts | 345° |
| 2026-04-23 08:11 | 36.11285 | 117.32634 | 7038 ft | 268 kts | 345° |
| 2026-04-23 08:11 | 36.13063 | 117.31976 | 6913 ft | 266 kts | 345° |
| 2026-04-23 08:11 | 36.14847 | 117.31315 | 6924 ft | 268 kts | 345° |
| 2026-04-23 08:12 | 36.16636 | 117.30652 | 6910 ft | 268 kts | 345° |
| 2026-04-23 08:12 | 36.18422 | 117.29990 | 6915 ft | 268 kts | 345° |
| 2026-04-23 08:12 | 36.20214 | 117.29326 | 6914 ft | 269 kts | 345° |
| 2026-04-23 08:12 | 36.21401 | 117.28886 | 6908 ft | 269 kts | 345° |
| 2026-04-23 08:13 | 36.25761 | 117.27268 | 6917 ft | 269 kts | 345° |
| 2026-04-23 08:13 | 36.27554 | 117.26602 | 6906 ft | 269 kts | 345° |
| 2026-04-23 08:13 | 36.29345 | 117.25936 | 6923 ft | 269 kts | 345° |
| 2026-04-23 08:14 | 36.31134 | 117.25270 | 6922 ft | 269 kts | 345° |
| 2026-04-23 08:14 | 36.32924 | 117.24605 | 6915 ft | 269 kts | 345° |
| 2026-04-23 08:14 | 36.34716 | 117.23936 | 6909 ft | 269 kts | 345° |
| 2026-04-23 08:14 | 36.36497 | 117.23272 | 6903 ft | 263 kts | 345° |
| 2026-04-23 08:15 | 36.38209 | 117.22635 | 6909 ft | 249 kts | 345° |
| 2026-04-23 08:15 | 36.39826 | 117.22033 | 6924 ft | 238 kts | 345° |
| 2026-04-23 08:15 | 36.41407 | 117.21461 | 6916 ft | 235 kts | 349° |
| 2026-04-23 08:15 | 36.43019 | 117.21340 | 6792 ft | 230 kts | 3° |
| 2026-04-23 08:16 | 36.44622 | 117.21379 | 6450 ft | 231 kts | 3° |
| 2026-04-23 08:16 | 36.45687 | 117.21401 | 6276 ft | 231 kts | 2° |
| 2026-04-23 08:16 | 36.47836 | 117.21445 | 5872 ft | 231 kts | 2° |
| 2026-04-23 08:16 | 36.49447 | 117.21480 | 5553 ft | 232 kts | 1° |
| 2026-04-23 08:17 | 36.50514 | 117.21504 | 5353 ft | 233 kts | 1° |
| 2026-04-23 08:17 | 36.52678 | 117.21551 | 5048 ft | 231 kts | 0° |
| 2026-04-23 08:17 | 36.53742 | 117.21575 | 4935 ft | 230 kts | 0° |
| 2026-04-23 08:17 | 36.55343 | 117.21604 | 4820 ft | 230 kts | 359° |
| 2026-04-23 08:18 | 36.56949 | 117.21602 | 4551 ft | 232 kts | 359° |
| 2026-04-23 08:18 | 36.58558 | 117.21604 | 4270 ft | 230 kts | 359° |
| 2026-04-23 08:18 | 36.60163 | 117.21603 | 3974 ft | 230 kts | 358° |
| 2026-04-23 08:18 | 36.61763 | 117.21600 | 3659 ft | 231 kts | 359° |
| 2026-04-23 08:19 | 36.63369 | 117.21599 | 3404 ft | 230 kts | 358° |
| 2026-04-23 08:19 | 36.64969 | 117.21598 | 3308 ft | 229 kts | 359° |
| 2026-04-23 08:19 | 36.66560 | 117.21599 | 3280 ft | 229 kts | 359° |
| 2026-04-23 08:19 | 36.68147 | 117.21598 | 3315 ft | 226 kts | 358° |
| 2026-04-23 08:20 | 36.69745 | 117.21593 | 2935 ft | 233 kts | 358° |
| 2026-04-23 08:20 | 36.71353 | 117.21590 | 2667 ft | 229 kts | 358° |
| 2026-04-23 08:20 | 36.72937 | 117.21593 | 2290 ft | 226 kts | 358° |
| 2026-04-23 08:20 | 36.74448 | 117.21596 | 2031 ft | 206 kts | 358° |
| 2026-04-23 08:21 | 36.75800 | 117.21596 | 1746 ft | 182 kts | 358° |
| 2026-04-23 08:21 | 36.76984 | 117.21596 | 1520 ft | 161 kts | 357° |
| 2026-04-23 08:21 | 36.78068 | 117.21593 | 1296 ft | 157 kts | 356° |
| 2026-04-23 08:21 | 36.79166 | 117.21593 | 1090 ft | 159 kts | 357° |
| 2026-04-23 08:22 | 36.80274 | 117.21596 | 875 ft | 160 kts | 357° |
| 2026-04-23 08:22 | 36.81382 | 117.21581 | 681 ft | 159 kts | 354° |
| 2026-04-23 08:22 | 36.82487 | 117.21585 | 452 ft | 157 kts | 357° |
| 2026-04-23 08:22 | 36.83563 | 117.21599 | 250 ft | 153 kts | 355° |
| 2026-04-23 08:23 | 36.84620 | 117.21598 | 93 ft | 146 kts | 357° |
| 2026-04-23 08:23 | 36.85400 | 117.21595 | 92 ft | 76 kts | 0° |
| 2026-04-23 08:23 | 36.85765 | 117.21593 | 92 ft | 26 kts | 355° |
| 2026-04-23 08:23 | 36.85928 | 117.21545 | 89 ft | 20 kts | 337° |
| 2026-04-23 08:24 | 36.86044 | 117.21464 | 87 ft | 14 kts | 319° |
| 2026-04-23 08:24 | 36.86041 | 117.21381 | 86 ft | 12 kts | 210° |
| 2026-04-23 08:24 | 36.85953 | 117.21370 | 87 ft | 14 kts | 180° |
| 2026-04-23 08:24 | 36.85846 | 117.21371 | 86 ft | 17 kts | 178° |
| 2026-04-23 08:25 | 36.85750 | 117.21354 | 84 ft | 9 kts | 248° |
| 2026-04-23 08:25 | 36.85720 | 117.21274 | 83 ft | 13 kts | 202° |
| 2026-04-23 08:25 | 36.85610 | 117.21271 | 87 ft | 19 kts | 179° |
| 2026-04-23 08:25 | 36.85479 | 117.21269 | 86 ft | 10 kts | 185° |
| 2026-04-23 08:26 | 36.85399 | 117.21268 | 85 ft | 10 kts | 194° |
| 2026-04-23 08:26 | 36.85348 | 117.21185 | 87 ft | 15 kts | 245° |
| 2026-04-23 08:26 | 36.85301 | 117.21054 | 85 ft | 18 kts | 245° |
| 2026-04-23 08:26 | 36.85238 | 117.20979 | 85 ft | 12 kts | 191° |
| 2026-04-23 08:27 | 36.85160 | 117.20981 | 86 ft | 12 kts | 179° |
| 2026-04-23 08:27 | 36.85108 | 117.20950 | 85 ft | 8 kts | 253° |
| 2026-04-23 08:27 | 36.85106 | 117.20895 | 83 ft | 2 kts | 270° |
| 2026-04-23 08:27 | 36.85106 | 117.20892 | 84 ft | 0 kts | 269° |